sensor_id;sensor_type;location;lat;lon;timestamp;temperature;humidity
52285;DHT22;38238;53.304;6.606;2022-08-01T00:01:51;18.20;99.90
52285;DHT22;38238;53.304;6.606;2022-08-01T00:04:17;18.10;99.90
52285;DHT22;38238;53.304;6.606;2022-08-01T00:06:42;18.10;99.90
52285;DHT22;38238;53.304;6.606;2022-08-01T00:09:08;18.10;99.90
52285;DHT22;38238;53.304;6.606;2022-08-01T00:11:34;18.10;99.90
52285;DHT22;38238;53.304;6.606;2022-08-01T00:13:59;18.00;99.90
52285;DHT22;38238;53.304;6.606;2022-08-01T00:16:25;18.00;99.90
52285;DHT22;38238;53.304;6.606;2022-08-01T00:18:52;17.90;99.90
52285;DHT22;38238;53.304;6.606;2022-08-01T00:21:18;17.90;99.90
52285;DHT22;38238;53.304;6.606;2022-08-01T00:23:43;17.80;99.90
52285;DHT22;38238;53.304;6.606;2022-08-01T00:26:11;17.80;99.90
52285;DHT22;38238;53.304;6.606;2022-08-01T00:28:37;17.80;99.90
52285;DHT22;38238;53.304;6.606;2022-08-01T00:31:03;17.70;99.90
52285;DHT22;38238;53.304;6.606;2022-08-01T00:33:29;17.70;99.90
52285;DHT22;38238;53.304;6.606;2022-08-01T00:35:54;17.70;99.90
52285;DHT22;38238;53.304;6.606;2022-08-01T00:38:21;17.70;99.90
52285;DHT22;38238;53.304;6.606;2022-08-01T00:40:47;17.70;99.90
52285;DHT22;38238;53.304;6.606;2022-08-01T00:43:13;17.70;99.90
52285;DHT22;38238;53.304;6.606;2022-08-01T00:45:39;17.70;99.90
52285;DHT22;38238;53.304;6.606;2022-08-01T00:48:05;17.60;99.90
52285;DHT22;38238;53.304;6.606;2022-08-01T00:50:30;17.60;99.90
52285;DHT22;38238;53.304;6.606;2022-08-01T00:52:58;17.70;99.90
52285;DHT22;38238;53.304;6.606;2022-08-01T00:55:24;17.70;99.90
52285;DHT22;38238;53.304;6.606;2022-08-01T00:57:50;17.70;99.90
52285;DHT22;38238;53.304;6.606;2022-08-01T01:00:16;17.70;99.90
52285;DHT22;38238;53.304;6.606;2022-08-01T01:02:42;17.70;99.90
52285;DHT22;38238;53.304;6.606;2022-08-01T01:05:09;17.60;99.90
52285;DHT22;38238;53.304;6.606;2022-08-01T01:07:47;17.60;99.90
52285;DHT22;38238;53.304;6.606;2022-08-01T01:10:21;17.60;99.90
52285;DHT22;38238;53.304;6.606;2022-08-01T01:15:30;17.50;99.90
52285;DHT22;38238;53.304;6.606;2022-08-01T01:18:00;17.50;99.90
52285;DHT22;38238;53.304;6.606;2022-08-01T01:20:30;17.50;99.90
52285;DHT22;38238;53.304;6.606;2022-08-01T01:29:16;17.40;99.90
52285;DHT22;38238;53.304;6.606;2022-08-01T01:32:26;17.30;99.90
52285;DHT22;38238;53.304;6.606;2022-08-01T01:34:44;17.30;99.90
52285;DHT22;38238;53.304;6.606;2022-08-01T01:37:15;17.30;99.90
52285;DHT22;38238;53.304;6.606;2022-08-01T01:39:43;17.20;99.90
52285;DHT22;38238;53.304;6.606;2022-08-01T01:42:10;17.30;99.90
52285;DHT22;38238;53.304;6.606;2022-08-01T01:44:37;17.20;99.90
52285;DHT22;38238;53.304;6.606;2022-08-01T01:47:04;17.20;99.90
52285;DHT22;38238;53.304;6.606;2022-08-01T01:49:30;17.20;99.90
52285;DHT22;38238;53.304;6.606;2022-08-01T01:51:58;17.20;99.90
52285;DHT22;38238;53.304;6.606;2022-08-01T01:54:30;17.20;99.90
52285;DHT22;38238;53.304;6.606;2022-08-01T01:56:59;17.20;99.90
52285;DHT22;38238;53.304;6.606;2022-08-01T01:59:28;17.20;99.90
52285;DHT22;38238;53.304;6.606;2022-08-01T02:01:58;17.20;99.90
52285;DHT22;38238;53.304;6.606;2022-08-01T02:04:25;17.20;99.90
52285;DHT22;38238;53.304;6.606;2022-08-01T02:06:53;17.20;99.90
52285;DHT22;38238;53.304;6.606;2022-08-01T02:09:20;17.20;99.90
52285;DHT22;38238;53.304;6.606;2022-08-01T02:11:48;17.20;99.90
52285;DHT22;38238;53.304;6.606;2022-08-01T02:14:16;17.30;99.90
52285;DHT22;38238;53.304;6.606;2022-08-01T02:16:47;17.20;99.90
52285;DHT22;38238;53.304;6.606;2022-08-01T02:19:14;17.30;99.90
52285;DHT22;38238;53.304;6.606;2022-08-01T02:25:06;17.30;99.90
52285;DHT22;38238;53.304;6.606;2022-08-01T02:28:06;17.20;99.90
52285;DHT22;38238;53.304;6.606;2022-08-01T02:30:38;17.20;99.90
52285;DHT22;38238;53.304;6.606;2022-08-01T02:33:12;17.20;99.90
52285;DHT22;38238;53.304;6.606;2022-08-01T02:35:40;17.10;99.90
52285;DHT22;38238;53.304;6.606;2022-08-01T02:38:09;17.10;99.90
52285;DHT22;38238;53.304;6.606;2022-08-01T02:40:38;17.10;99.90
52285;DHT22;38238;53.304;6.606;2022-08-01T02:43:06;17.00;99.90
52285;DHT22;38238;53.304;6.606;2022-08-01T02:45:34;17.00;99.90
52285;DHT22;38238;53.304;6.606;2022-08-01T02:48:19;17.00;99.90
52285;DHT22;38238;53.304;6.606;2022-08-01T02:50:48;16.90;99.90
52285;DHT22;38238;53.304;6.606;2022-08-01T02:53:17;16.90;99.90
52285;DHT22;38238;53.304;6.606;2022-08-01T02:55:45;16.90;99.90
52285;DHT22;38238;53.304;6.606;2022-08-01T02:58:15;16.90;99.90
52285;DHT22;38238;53.304;6.606;2022-08-01T03:00:43;16.80;99.90
52285;DHT22;38238;53.304;6.606;2022-08-01T03:03:10;16.80;99.90
52285;DHT22;38238;53.304;6.606;2022-08-01T03:05:37;16.80;99.90
52285;DHT22;38238;53.304;6.606;2022-08-01T03:08:06;16.80;99.90
52285;DHT22;38238;53.304;6.606;2022-08-01T03:10:32;16.70;99.90
52285;DHT22;38238;53.304;6.606;2022-08-01T03:13:01;16.70;99.90
52285;DHT22;38238;53.304;6.606;2022-08-01T03:15:31;16.70;99.90
52285;DHT22;38238;53.304;6.606;2022-08-01T03:17:59;16.80;99.90
52285;DHT22;38238;53.304;6.606;2022-08-01T03:20:27;16.80;99.90
52285;DHT22;38238;53.304;6.606;2022-08-01T03:22:57;16.80;99.90
52285;DHT22;38238;53.304;6.606;2022-08-01T03:25:24;16.80;99.90
52285;DHT22;38238;53.304;6.606;2022-08-01T03:27:55;16.70;99.90
52285;DHT22;38238;53.304;6.606;2022-08-01T03:30:26;16.70;99.90
52285;DHT22;38238;53.304;6.606;2022-08-01T03:32:53;16.70;99.90
52285;DHT22;38238;53.304;6.606;2022-08-01T03:35:19;16.70;99.90
52285;DHT22;38238;53.304;6.606;2022-08-01T03:37:49;16.70;99.90
52285;DHT22;38238;53.304;6.606;2022-08-01T03:43:36;16.70;99.90
52285;DHT22;38238;53.304;6.606;2022-08-01T03:46:07;16.70;99.90
52285;DHT22;38238;53.304;6.606;2022-08-01T03:48:39;16.50;99.90
52285;DHT22;38238;53.304;6.606;2022-08-01T03:51:05;16.50;99.90
52285;DHT22;38238;53.304;6.606;2022-08-01T03:53:33;16.50;99.90
52285;DHT22;38238;53.304;6.606;2022-08-01T03:56:00;16.40;99.90
52285;DHT22;38238;53.304;6.606;2022-08-01T03:58:28;16.40;99.90
52285;DHT22;38238;53.304;6.606;2022-08-01T04:00:55;16.40;99.90
52285;DHT22;38238;53.304;6.606;2022-08-01T04:03:21;16.40;99.90
52285;DHT22;38238;53.304;6.606;2022-08-01T04:05:47;16.30;99.90
52285;DHT22;38238;53.304;6.606;2022-08-01T04:08:13;16.30;99.90
52285;DHT22;38238;53.304;6.606;2022-08-01T04:10:39;16.30;99.90
52285;DHT22;38238;53.304;6.606;2022-08-01T04:13:04;16.20;99.90
52285;DHT22;38238;53.304;6.606;2022-08-01T04:15:30;16.20;99.90
52285;DHT22;38238;53.304;6.606;2022-08-01T04:17:56;16.20;99.90
52285;DHT22;38238;53.304;6.606;2022-08-01T04:20:22;16.20;99.90
52285;DHT22;38238;53.304;6.606;2022-08-01T04:22:47;16.20;99.90
52285;DHT22;38238;53.304;6.606;2022-08-01T04:25:33;16.10;99.90
52285;DHT22;38238;53.304;6.606;2022-08-01T04:28:01;16.10;99.90
52285;DHT22;38238;53.304;6.606;2022-08-01T04:30:33;16.00;99.90
52285;DHT22;38238;53.304;6.606;2022-08-01T04:33:01;16.00;99.90
52285;DHT22;38238;53.304;6.606;2022-08-01T04:35:32;16.10;99.90
52285;DHT22;38238;53.304;6.606;2022-08-01T04:37:58;16.10;99.90
52285;DHT22;38238;53.304;6.606;2022-08-01T04:40:28;16.20;99.90
52285;DHT22;38238;53.304;6.606;2022-08-01T04:42:54;16.20;99.90
52285;DHT22;38238;53.304;6.606;2022-08-01T04:45:21;16.20;99.90
52285;DHT22;38238;53.304;6.606;2022-08-01T04:47:47;16.20;99.90
52285;DHT22;38238;53.304;6.606;2022-08-01T04:50:13;16.30;99.90
52285;DHT22;38238;53.304;6.606;2022-08-01T04:52:39;16.20;99.90
52285;DHT22;38238;53.304;6.606;2022-08-01T04:55:08;16.20;99.90
52285;DHT22;38238;53.304;6.606;2022-08-01T04:57:37;16.20;99.90
52285;DHT22;38238;53.304;6.606;2022-08-01T05:00:04;16.20;99.90
52285;DHT22;38238;53.304;6.606;2022-08-01T05:02:32;16.20;99.90
52285;DHT22;38238;53.304;6.606;2022-08-01T05:04:57;16.30;99.90
52285;DHT22;38238;53.304;6.606;2022-08-01T05:07:23;16.20;99.90
52285;DHT22;38238;53.304;6.606;2022-08-01T05:09:50;16.20;99.90
52285;DHT22;38238;53.304;6.606;2022-08-01T05:12:16;16.30;99.90
52285;DHT22;38238;53.304;6.606;2022-08-01T05:14:45;16.30;99.90
52285;DHT22;38238;53.304;6.606;2022-08-01T05:17:11;16.30;99.90
52285;DHT22;38238;53.304;6.606;2022-08-01T05:19:38;16.30;99.90
52285;DHT22;38238;53.304;6.606;2022-08-01T05:22:08;16.40;99.90
52285;DHT22;38238;53.304;6.606;2022-08-01T05:24:35;16.40;99.90
52285;DHT22;38238;53.304;6.606;2022-08-01T05:27:01;16.50;99.90
52285;DHT22;38238;53.304;6.606;2022-08-01T05:29:27;16.50;99.90
52285;DHT22;38238;53.304;6.606;2022-08-01T05:31:53;16.50;99.90
52285;DHT22;38238;53.304;6.606;2022-08-01T05:34:20;16.50;99.90
52285;DHT22;38238;53.304;6.606;2022-08-01T05:36:45;16.50;99.90
52285;DHT22;38238;53.304;6.606;2022-08-01T05:39:11;16.50;99.90
52285;DHT22;38238;53.304;6.606;2022-08-01T05:41:38;16.50;99.90
52285;DHT22;38238;53.304;6.606;2022-08-01T05:44:04;17.60;99.90
52285;DHT22;38238;53.304;6.606;2022-08-01T05:46:30;16.50;99.90
52285;DHT22;38238;53.304;6.606;2022-08-01T05:49:00;16.50;99.90
52285;DHT22;38238;53.304;6.606;2022-08-01T05:51:26;16.50;99.90
52285;DHT22;38238;53.304;6.606;2022-08-01T05:53:52;16.40;99.90
52285;DHT22;38238;53.304;6.606;2022-08-01T05:56:19;16.50;99.90
52285;DHT22;38238;53.304;6.606;2022-08-01T05:58:46;16.50;99.90
52285;DHT22;38238;53.304;6.606;2022-08-01T06:01:11;16.40;99.90
52285;DHT22;38238;53.304;6.606;2022-08-01T06:03:37;16.40;99.90
52285;DHT22;38238;53.304;6.606;2022-08-01T06:06:03;16.40;99.90
52285;DHT22;38238;53.304;6.606;2022-08-01T06:08:29;16.50;99.90
52285;DHT22;38238;53.304;6.606;2022-08-01T06:10:55;16.40;99.90
52285;DHT22;38238;53.304;6.606;2022-08-01T06:13:21;16.40;99.90
52285;DHT22;38238;53.304;6.606;2022-08-01T06:15:47;16.40;99.90
52285;DHT22;38238;53.304;6.606;2022-08-01T06:18:13;16.40;99.90
52285;DHT22;38238;53.304;6.606;2022-08-01T06:20:39;16.40;99.90
52285;DHT22;38238;53.304;6.606;2022-08-01T06:23:05;16.40;99.90
52285;DHT22;38238;53.304;6.606;2022-08-01T06:25:31;16.40;99.90
52285;DHT22;38238;53.304;6.606;2022-08-01T06:27:57;16.40;99.90
52285;DHT22;38238;53.304;6.606;2022-08-01T06:30:23;16.40;99.90
52285;DHT22;38238;53.304;6.606;2022-08-01T06:32:48;16.50;99.90
52285;DHT22;38238;53.304;6.606;2022-08-01T06:35:15;16.50;99.90
52285;DHT22;38238;53.304;6.606;2022-08-01T06:37:41;16.60;99.90
52285;DHT22;38238;53.304;6.606;2022-08-01T06:40:09;16.60;99.90
52285;DHT22;38238;53.304;6.606;2022-08-01T06:42:35;16.60;99.90
52285;DHT22;38238;53.304;6.606;2022-08-01T06:45:07;16.70;99.90
52285;DHT22;38238;53.304;6.606;2022-08-01T06:47:33;16.70;99.90
52285;DHT22;38238;53.304;6.606;2022-08-01T06:49:58;16.80;99.90
52285;DHT22;38238;53.304;6.606;2022-08-01T06:52:24;16.80;99.90
52285;DHT22;38238;53.304;6.606;2022-08-01T06:54:50;16.90;99.90
52285;DHT22;38238;53.304;6.606;2022-08-01T06:57:16;16.90;99.90
52285;DHT22;38238;53.304;6.606;2022-08-01T06:59:41;17.00;99.90
52285;DHT22;38238;53.304;6.606;2022-08-01T07:02:07;17.10;99.90
52285;DHT22;38238;53.304;6.606;2022-08-01T07:04:33;17.10;99.90
52285;DHT22;38238;53.304;6.606;2022-08-01T07:06:59;17.20;99.90
52285;DHT22;38238;53.304;6.606;2022-08-01T07:09:26;17.20;99.90
52285;DHT22;38238;53.304;6.606;2022-08-01T07:11:51;17.30;99.90
52285;DHT22;38238;53.304;6.606;2022-08-01T07:14:18;17.30;99.90
52285;DHT22;38238;53.304;6.606;2022-08-01T07:16:44;17.30;99.90
52285;DHT22;38238;53.304;6.606;2022-08-01T07:19:10;17.20;99.90
52285;DHT22;38238;53.304;6.606;2022-08-01T07:21:36;17.10;99.90
52285;DHT22;38238;53.304;6.606;2022-08-01T07:24:04;17.20;99.90
52285;DHT22;38238;53.304;6.606;2022-08-01T07:26:30;17.20;99.90
52285;DHT22;38238;53.304;6.606;2022-08-01T07:28:55;17.10;99.90
52285;DHT22;38238;53.304;6.606;2022-08-01T07:31:21;17.10;99.90
52285;DHT22;38238;53.304;6.606;2022-08-01T07:33:48;17.10;99.90
52285;DHT22;38238;53.304;6.606;2022-08-01T07:36:17;17.20;99.90
52285;DHT22;38238;53.304;6.606;2022-08-01T07:38:44;17.30;99.90
52285;DHT22;38238;53.304;6.606;2022-08-01T07:41:09;17.30;99.90
52285;DHT22;38238;53.304;6.606;2022-08-01T07:43:35;17.40;99.90
52285;DHT22;38238;53.304;6.606;2022-08-01T07:46:03;17.50;99.90
52285;DHT22;38238;53.304;6.606;2022-08-01T07:48:29;17.50;99.90
52285;DHT22;38238;53.304;6.606;2022-08-01T07:50:55;17.50;99.90
52285;DHT22;38238;53.304;6.606;2022-08-01T07:53:21;17.50;99.90
52285;DHT22;38238;53.304;6.606;2022-08-01T07:55:46;17.50;99.90
52285;DHT22;38238;53.304;6.606;2022-08-01T07:58:13;17.60;99.90
52285;DHT22;38238;53.304;6.606;2022-08-01T08:00:39;17.60;99.90
52285;DHT22;38238;53.304;6.606;2022-08-01T08:03:04;17.60;99.90
52285;DHT22;38238;53.304;6.606;2022-08-01T08:05:31;17.60;99.90
52285;DHT22;38238;53.304;6.606;2022-08-01T08:08:01;17.60;99.90
52285;DHT22;38238;53.304;6.606;2022-08-01T08:10:27;17.70;99.90
52285;DHT22;38238;53.304;6.606;2022-08-01T08:12:52;17.70;99.90
52285;DHT22;38238;53.304;6.606;2022-08-01T08:15:18;17.70;99.90
52285;DHT22;38238;53.304;6.606;2022-08-01T08:17:44;17.70;99.90
52285;DHT22;38238;53.304;6.606;2022-08-01T08:20:10;17.70;99.90
52285;DHT22;38238;53.304;6.606;2022-08-01T08:22:36;17.70;99.90
52285;DHT22;38238;53.304;6.606;2022-08-01T08:25:03;17.60;99.90
52285;DHT22;38238;53.304;6.606;2022-08-01T08:27:28;17.70;99.90
52285;DHT22;38238;53.304;6.606;2022-08-01T08:29:54;17.60;99.90
52285;DHT22;38238;53.304;6.606;2022-08-01T08:32:20;17.70;99.90
52285;DHT22;38238;53.304;6.606;2022-08-01T08:34:46;17.70;99.90
52285;DHT22;38238;53.304;6.606;2022-08-01T08:37:11;17.80;99.90
52285;DHT22;38238;53.304;6.606;2022-08-01T08:39:38;17.90;99.90
52285;DHT22;38238;53.304;6.606;2022-08-01T08:42:08;18.00;99.90
52285;DHT22;38238;53.304;6.606;2022-08-01T08:44:34;18.10;99.90
52285;DHT22;38238;53.304;6.606;2022-08-01T08:47:02;18.10;99.90
52285;DHT22;38238;53.304;6.606;2022-08-01T08:49:31;18.30;99.90
52285;DHT22;38238;53.304;6.606;2022-08-01T08:52:01;19.00;99.90
52285;DHT22;38238;53.304;6.606;2022-08-01T08:54:28;19.80;99.90
52285;DHT22;38238;53.304;6.606;2022-08-01T08:56:55;20.40;99.90
52285;DHT22;38238;53.304;6.606;2022-08-01T08:59:21;20.90;99.90
52285;DHT22;38238;53.304;6.606;2022-08-01T09:01:49;21.00;99.90
52285;DHT22;38238;53.304;6.606;2022-08-01T09:04:15;21.10;99.90
52285;DHT22;38238;53.304;6.606;2022-08-01T09:06:42;21.30;99.90
52285;DHT22;38238;53.304;6.606;2022-08-01T09:09:09;21.30;99.90
52285;DHT22;38238;53.304;6.606;2022-08-01T09:11:35;21.50;99.90
52285;DHT22;38238;53.304;6.606;2022-08-01T09:14:11;21.30;99.90
52285;DHT22;38238;53.304;6.606;2022-08-01T09:16:41;21.40;99.90
52285;DHT22;38238;53.304;6.606;2022-08-01T09:19:16;21.50;99.90
52285;DHT22;38238;53.304;6.606;2022-08-01T09:21:56;21.50;99.90
52285;DHT22;38238;53.304;6.606;2022-08-01T09:24:23;21.30;99.90
52285;DHT22;38238;53.304;6.606;2022-08-01T09:26:49;20.70;99.90
52285;DHT22;38238;53.304;6.606;2022-08-01T09:29:25;20.40;99.90
52285;DHT22;38238;53.304;6.606;2022-08-01T09:31:51;19.90;99.90
52285;DHT22;38238;53.304;6.606;2022-08-01T09:34:30;20.00;99.90
52285;DHT22;38238;53.304;6.606;2022-08-01T09:37:01;20.30;99.90
52285;DHT22;38238;53.304;6.606;2022-08-01T09:39:35;20.20;99.90
52285;DHT22;38238;53.304;6.606;2022-08-01T09:44:44;19.90;99.90
52285;DHT22;38238;53.304;6.606;2022-08-01T09:47:12;20.10;99.90
52285;DHT22;38238;53.304;6.606;2022-08-01T09:49:40;20.20;99.90
52285;DHT22;38238;53.304;6.606;2022-08-01T09:52:15;20.20;99.90
52285;DHT22;38238;53.304;6.606;2022-08-01T09:54:43;20.30;99.90
52285;DHT22;38238;53.304;6.606;2022-08-01T09:57:13;20.40;99.90
52285;DHT22;38238;53.304;6.606;2022-08-01T09:59:41;20.20;99.50
52285;DHT22;38238;53.304;6.606;2022-08-01T10:04:53;20.30;99.40
52285;DHT22;38238;53.304;6.606;2022-08-01T10:07:19;20.30;99.30
52285;DHT22;38238;53.304;6.606;2022-08-01T10:09:46;20.40;99.40
52285;DHT22;38238;53.304;6.606;2022-08-01T10:12:14;20.30;98.70
52285;DHT22;38238;53.304;6.606;2022-08-01T10:14:40;20.00;99.00
52285;DHT22;38238;53.304;6.606;2022-08-01T10:17:08;20.00;99.20
52285;DHT22;38238;53.304;6.606;2022-08-01T10:19:35;20.20;99.50
52285;DHT22;38238;53.304;6.606;2022-08-01T10:22:04;20.30;99.40
52285;DHT22;38238;53.304;6.606;2022-08-01T10:24:31;20.10;99.00
52285;DHT22;38238;53.304;6.606;2022-08-01T10:27:07;20.10;99.40
52285;DHT22;38238;53.304;6.606;2022-08-01T10:29:37;20.20;99.20
52285;DHT22;38238;53.304;6.606;2022-08-01T10:32:06;20.20;99.00
52285;DHT22;38238;53.304;6.606;2022-08-01T10:34:35;20.20;98.90
52285;DHT22;38238;53.304;6.606;2022-08-01T10:37:01;20.10;98.70
52285;DHT22;38238;53.304;6.606;2022-08-01T10:39:28;20.10;98.90
52285;DHT22;38238;53.304;6.606;2022-08-01T10:41:55;20.30;99.00
52285;DHT22;38238;53.304;6.606;2022-08-01T10:44:26;20.40;98.70
52285;DHT22;38238;53.304;6.606;2022-08-01T10:46:57;20.30;97.50
52285;DHT22;38238;53.304;6.606;2022-08-01T10:49:29;20.00;97.70
52285;DHT22;38238;53.304;6.606;2022-08-01T10:51:55;19.90;97.50
52285;DHT22;38238;53.304;6.606;2022-08-01T10:54:24;19.90;97.70
52285;DHT22;38238;53.304;6.606;2022-08-01T10:56:51;20.00;97.70
52285;DHT22;38238;53.304;6.606;2022-08-01T10:59:28;20.00;97.40
52285;DHT22;38238;53.304;6.606;2022-08-01T11:02:00;20.10;97.30
52285;DHT22;38238;53.304;6.606;2022-08-01T11:04:51;20.30;97.40
52285;DHT22;38238;53.304;6.606;2022-08-01T11:07:38;20.60;97.70
52285;DHT22;38238;53.304;6.606;2022-08-01T11:10:31;20.60;97.20
52285;DHT22;38238;53.304;6.606;2022-08-01T11:12:59;20.40;96.90
52285;DHT22;38238;53.304;6.606;2022-08-01T11:15:27;20.20;96.60
52285;DHT22;38238;53.304;6.606;2022-08-01T11:17:54;20.40;97.10
52285;DHT22;38238;53.304;6.606;2022-08-01T11:20:25;20.50;97.10
52285;DHT22;38238;53.304;6.606;2022-08-01T11:44:02;20.40;95.30
52285;DHT22;38238;53.304;6.606;2022-08-01T11:46:57;20.30;95.00
52285;DHT22;38238;53.304;6.606;2022-08-01T11:52:13;20.70;95.30
52285;DHT22;38238;53.304;6.606;2022-08-01T11:54:46;20.80;95.10
52285;DHT22;38238;53.304;6.606;2022-08-01T11:57:15;20.80;95.00
52285;DHT22;38238;53.304;6.606;2022-08-01T11:59:48;20.80;95.00
52285;DHT22;38238;53.304;6.606;2022-08-01T12:05:17;20.30;94.50
52285;DHT22;38238;53.304;6.606;2022-08-01T12:07:49;20.10;94.40
52285;DHT22;38238;53.304;6.606;2022-08-01T12:10:17;20.30;94.90
52285;DHT22;38238;53.304;6.606;2022-08-01T12:12:50;20.40;94.70
52285;DHT22;38238;53.304;6.606;2022-08-01T12:15:18;20.60;94.90
52285;DHT22;38238;53.304;6.606;2022-08-01T12:17:46;20.50;94.80
52285;DHT22;38238;53.304;6.606;2022-08-01T12:20:14;20.40;94.70
52285;DHT22;38238;53.304;6.606;2022-08-01T12:22:41;20.40;94.60
52285;DHT22;38238;53.304;6.606;2022-08-01T12:27:37;20.30;94.70
52285;DHT22;38238;53.304;6.606;2022-08-01T12:30:13;20.30;94.10
52285;DHT22;38238;53.304;6.606;2022-08-01T12:32:41;20.30;94.70
52285;DHT22;38238;53.304;6.606;2022-08-01T12:35:09;20.40;95.00
52285;DHT22;38238;53.304;6.606;2022-08-01T12:37:42;20.50;94.80
52285;DHT22;38238;53.304;6.606;2022-08-01T12:40:29;20.50;94.40
52285;DHT22;38238;53.304;6.606;2022-08-01T12:43:00;20.50;95.10
52285;DHT22;38238;53.304;6.606;2022-08-01T12:45:30;20.50;95.10
52285;DHT22;38238;53.304;6.606;2022-08-01T12:47:57;20.30;94.60
52285;DHT22;38238;53.304;6.606;2022-08-01T12:50:28;20.30;94.90
52285;DHT22;38238;53.304;6.606;2022-08-01T12:52:55;20.30;94.80
52285;DHT22;38238;53.304;6.606;2022-08-01T12:55:22;20.30;95.00
52285;DHT22;38238;53.304;6.606;2022-08-01T13:00:49;20.20;94.60
52285;DHT22;38238;53.304;6.606;2022-08-01T13:03:16;20.20;94.70
52285;DHT22;38238;53.304;6.606;2022-08-01T13:08:14;20.20;94.40
52285;DHT22;38238;53.304;6.606;2022-08-01T13:10:40;20.30;94.70
52285;DHT22;38238;53.304;6.606;2022-08-01T13:13:08;20.40;94.70
52285;DHT22;38238;53.304;6.606;2022-08-01T13:15:36;20.40;94.20
52285;DHT22;38238;53.304;6.606;2022-08-01T13:18:25;20.40;94.50
52285;DHT22;38238;53.304;6.606;2022-08-01T13:21:14;20.60;93.70
52285;DHT22;38238;53.304;6.606;2022-08-01T13:23:42;20.60;93.70
52285;DHT22;38238;53.304;6.606;2022-08-01T13:26:46;20.60;93.60
52285;DHT22;38238;53.304;6.606;2022-08-01T13:29:28;20.90;94.10
52285;DHT22;38238;53.304;6.606;2022-08-01T13:31:54;21.00;94.10
52285;DHT22;38238;53.304;6.606;2022-08-01T13:34:30;20.80;93.60
52285;DHT22;38238;53.304;6.606;2022-08-01T13:36:56;20.50;93.50
52285;DHT22;38238;53.304;6.606;2022-08-01T13:39:21;20.50;93.90
52285;DHT22;38238;53.304;6.606;2022-08-01T13:42:06;20.60;94.30
52285;DHT22;38238;53.304;6.606;2022-08-01T13:44:32;20.60;94.30
52285;DHT22;38238;53.304;6.606;2022-08-01T13:46:58;20.40;94.20
52285;DHT22;38238;53.304;6.606;2022-08-01T13:49:24;20.30;94.50
52285;DHT22;38238;53.304;6.606;2022-08-01T13:51:50;20.20;94.40
52285;DHT22;38238;53.304;6.606;2022-08-01T13:54:16;20.30;94.50
52285;DHT22;38238;53.304;6.606;2022-08-01T13:56:42;20.30;94.30
52285;DHT22;38238;53.304;6.606;2022-08-01T13:59:08;20.40;94.10
52285;DHT22;38238;53.304;6.606;2022-08-01T14:01:35;20.60;94.40
52285;DHT22;38238;53.304;6.606;2022-08-01T14:04:01;20.70;94.30
52285;DHT22;38238;53.304;6.606;2022-08-01T14:06:27;20.70;94.20
52285;DHT22;38238;53.304;6.606;2022-08-01T14:08:53;20.90;94.50
52285;DHT22;38238;53.304;6.606;2022-08-01T14:11:19;21.10;94.50
52285;DHT22;38238;53.304;6.606;2022-08-01T14:13:45;21.20;94.20
52285;DHT22;38238;53.304;6.606;2022-08-01T14:16:11;21.30;94.10
52285;DHT22;38238;53.304;6.606;2022-08-01T14:18:36;21.50;94.30
52285;DHT22;38238;53.304;6.606;2022-08-01T14:21:02;21.80;93.90
52285;DHT22;38238;53.304;6.606;2022-08-01T14:23:28;21.90;93.90
52285;DHT22;38238;53.304;6.606;2022-08-01T14:25:54;22.00;93.90
52285;DHT22;38238;53.304;6.606;2022-08-01T14:28:20;21.90;93.50
52285;DHT22;38238;53.304;6.606;2022-08-01T14:30:46;21.70;92.90
52285;DHT22;38238;53.304;6.606;2022-08-01T14:33:12;21.60;93.30
52285;DHT22;38238;53.304;6.606;2022-08-01T14:35:39;21.40;92.90
52285;DHT22;38238;53.304;6.606;2022-08-01T14:38:05;21.40;93.20
52285;DHT22;38238;53.304;6.606;2022-08-01T14:40:31;21.30;92.80
52285;DHT22;38238;53.304;6.606;2022-08-01T14:42:56;21.40;93.20
52285;DHT22;38238;53.304;6.606;2022-08-01T14:45:22;21.70;93.50
52285;DHT22;38238;53.304;6.606;2022-08-01T14:47:48;22.00;93.60
52285;DHT22;38238;53.304;6.606;2022-08-01T14:50:15;21.90;92.70
52285;DHT22;38238;53.304;6.606;2022-08-01T14:52:42;21.70;92.60
52285;DHT22;38238;53.304;6.606;2022-08-01T14:55:09;21.70;92.80
52285;DHT22;38238;53.304;6.606;2022-08-01T14:57:36;21.90;93.40
52285;DHT22;38238;53.304;6.606;2022-08-01T15:00:04;21.90;92.60
52285;DHT22;38238;53.304;6.606;2022-08-01T15:02:30;21.70;92.50
52285;DHT22;38238;53.304;6.606;2022-08-01T15:04:56;21.60;92.50
52285;DHT22;38238;53.304;6.606;2022-08-01T15:07:22;21.40;92.50
52285;DHT22;38238;53.304;6.606;2022-08-01T15:09:47;21.30;92.70
52285;DHT22;38238;53.304;6.606;2022-08-01T15:12:13;21.20;92.70
52285;DHT22;38238;53.304;6.606;2022-08-01T15:14:39;21.30;92.90
52285;DHT22;38238;53.304;6.606;2022-08-01T15:17:25;21.20;92.30
52285;DHT22;38238;53.304;6.606;2022-08-01T15:19:53;21.20;92.60
52285;DHT22;38238;53.304;6.606;2022-08-01T15:22:20;21.20;92.70
52285;DHT22;38238;53.304;6.606;2022-08-01T15:24:47;21.20;92.70
52285;DHT22;38238;53.304;6.606;2022-08-01T15:27:13;21.20;92.50
52285;DHT22;38238;53.304;6.606;2022-08-01T15:29:38;20.90;92.40
52285;DHT22;38238;53.304;6.606;2022-08-01T15:32:05;20.90;92.80
52285;DHT22;38238;53.304;6.606;2022-08-01T15:34:32;20.90;92.50
52285;DHT22;38238;53.304;6.606;2022-08-01T15:36:58;21.00;92.40
52285;DHT22;38238;53.304;6.606;2022-08-01T15:39:24;21.00;92.30
52285;DHT22;38238;53.304;6.606;2022-08-01T15:41:50;20.80;92.30
52285;DHT22;38238;53.304;6.606;2022-08-01T15:44:16;20.70;92.50
52285;DHT22;38238;53.304;6.606;2022-08-01T15:46:46;20.60;92.30
52285;DHT22;38238;53.304;6.606;2022-08-01T15:49:12;20.40;92.00
52285;DHT22;38238;53.304;6.606;2022-08-01T15:51:38;20.10;92.20
52285;DHT22;38238;53.304;6.606;2022-08-01T15:54:04;20.00;92.40
52285;DHT22;38238;53.304;6.606;2022-08-01T15:56:32;20.00;92.50
52285;DHT22;38238;53.304;6.606;2022-08-01T15:58:58;19.80;92.60
52285;DHT22;38238;53.304;6.606;2022-08-01T16:01:24;19.70;92.50
52285;DHT22;38238;53.304;6.606;2022-08-01T16:03:54;19.60;92.70
52285;DHT22;38238;53.304;6.606;2022-08-01T16:06:20;19.60;92.70
52285;DHT22;38238;53.304;6.606;2022-08-01T16:08:46;19.60;92.90
52285;DHT22;38238;53.304;6.606;2022-08-01T16:11:12;19.50;93.10
52285;DHT22;38238;53.304;6.606;2022-08-01T16:13:38;19.50;93.10
52285;DHT22;38238;53.304;6.606;2022-08-01T16:16:04;19.50;93.30
52285;DHT22;38238;53.304;6.606;2022-08-01T16:18:31;19.50;93.20
52285;DHT22;38238;53.304;6.606;2022-08-01T16:20:57;19.50;93.30
52285;DHT22;38238;53.304;6.606;2022-08-01T16:23:23;19.40;93.10
52285;DHT22;38238;53.304;6.606;2022-08-01T16:25:49;19.30;93.10
52285;DHT22;38238;53.304;6.606;2022-08-01T16:28:15;18.70;93.10
52285;DHT22;38238;53.304;6.606;2022-08-01T16:30:41;19.30;93.20
52285;DHT22;38238;53.304;6.606;2022-08-01T16:33:07;19.20;93.10